Strona główna
Zdjęcia satelitarne 15-dni prognozyKlimatMeteorologia morska Cyklony Błyskawica LotniskoFAQ Gazetka O
Pogoda : Europa Afryka Ameryka Północna Ameryka Południowa Azja Australia-Oceania Inny
Języki Kontakt

Poznań, Polska

Ławica

Szerokość geograficzna: 52-25N, Długość geograficzna: 016-50E, wysokość: 86 m


METAR: EPPO 252230Z 16003KT 4000 BR NSC 04/03 Q1024
TAF: EPPO 251730Z 2518/2618 18004KT 6000 BKN025 TEMPO 2518/2614 3000 BR BKN010 PROB40 2522/2608 1500 BR BKN005

czas: 00:47 (22:47 UTC)

Aktualna obserwacja pogody

Raport powstał 17 minut temu, godzina 22:30 UTC
Wiatr 3 kt od południowo-południowy wschód
Temperatura 4°C
Wilgotność 93%
Ciśnienie 1024 hPa
Widzialność: 4000 m
zamglenie

Jednostka miary

Prognoza

Raport powstał 5 godziny i 17 minut temu, godzina 17:30 UTC
Prognoza ważna od 25 godzina 18 UTC do 26 godzina 18 UTC
Wiatr 4 kt od południe
Widzialność: 6000 m
Przerywane chmury na wysokości 2500 ft
Przejściowo
od 25 godzina 18 UTC do 26 godzina 14 UTC
Widzialność: 3000 m
Przerywane chmury na wysokości 1000 ft
zamglenie
Prawdopodobieństwo 40%
od 25 godzina 22 UTC do 26 godzina 08 UTC
Widzialność: 1500 m
Przerywane chmury na wysokości 500 ft
zamglenie
Informacje na tej stronie internetowej podlegają klauzuli o wyłączeniu odpowiedzialności
Pogoda : Europa Afryka Ameryka Północna Ameryka Południowa Azja Australia-Oceania Inny
Zdjęcia satelitarne 15-dni prognozyKlimatMeteorologia morska Cyklony Błyskawica LotniskoFAQ Języki Kontakt Gazetka O